Time;durP1;ratioP1;P1;durP2;ratioP2;P2;SDS_P1;SDS_P2;PMS_P1;PMS_P2;Temp;Humidity;BMP_temperature;BMP_pressure;BME280_temperature;BME280_humidity;BME280_pressure;Samples;Min_cycle;Max_cycle;Signal;HPM_P1;HPM_P2
2023/08/04 00:01:35;;;;;;;15.70;6.63;;;;;;;;;;4896316;29;20167;-59
2023/08/04 00:04:00;;;;;;;14.65;5.80;;;;;;;;;;4889816;29;20040;-58
2023/08/04 00:06:26;;;;;;;12.77;5.40;;;;;;;;;;4880481;29;20459;-58
2023/08/04 00:08:51;;;;;;;12.15;4.97;;;;;;;;;;4896518;29;20045;-58
2023/08/04 00:11:17;;;;;;;12.15;4.70;;;;;;;;;;4897322;29;20092;-58
2023/08/04 00:13:42;;;;;;;14.55;5.25;;;;;;;;;;4901922;29;20504;-59
2023/08/04 00:16:09;;;;;;;13.60;4.45;;;;;;;;;;4908258;29;20028;-58
2023/08/04 00:18:35;;;;;;;12.88;4.50;;;;;;;;;;4883886;29;20064;-58
2023/08/04 00:21:00;;;;;;;11.50;4.88;;;;;;;;;;4883525;29;20068;-59
2023/08/04 00:23:26;;;;;;;11.65;4.25;;;;;;;;;;4891742;29;20036;-58
2023/08/04 00:25:51;;;;;;;6.10;4.13;;;;;;;;;;4897630;29;20095;-59
2023/08/04 00:28:16;;;;;;;11.57;4.38;;;;;;;;;;4885413;29;20085;-58
2023/08/04 00:30:42;;;;;;;10.95;4.80;;;;;;;;;;4893974;29;20486;-59
2023/08/04 00:33:07;;;;;;;10.20;4.82;;;;;;;;;;4877620;29;20037;-58
2023/08/04 00:35:33;;;;;;;10.70;5.05;;;;;;;;;;4893821;29;20056;-59
2023/08/04 00:37:58;;;;;;;12.05;5.30;;;;;;;;;;4879390;29;20037;-59
2023/08/04 00:40:24;;;;;;;12.32;5.28;;;;;;;;;;4897520;29;20043;-58
2023/08/04 00:42:49;;;;;;;13.65;5.13;;;;;;;;;;4879887;29;20454;-58
2023/08/04 00:45:18;;;;;;;11.68;5.05;;;;;;;;;;4898295;29;20099;-59
2023/08/04 00:47:43;;;;;;;12.63;6.05;;;;;;;;;;4894124;29;20449;-58
2023/08/04 00:50:09;;;;;;;12.15;5.15;;;;;;;;;;4895136;29;20037;-58
2023/08/04 00:52:37;;;;;;;16.70;5.55;;;;;;;;;;4891414;29;20044;-59
2023/08/04 00:55:07;;;;;;;11.13;5.63;;;;;;;;;;4897177;29;20137;-58
2023/08/04 00:57:34;;;;;;;;;;;;;;;;;;4893548;29;20490;-58
2023/08/04 01:00:00;;;;;;;12.43;5.78;;;;;;;;;;4897181;29;19915;-59
2023/08/04 01:02:25;;;;;;;16.67;5.68;;;;;;;;;;4894875;29;20047;-59
2023/08/04 01:04:50;;;;;;;11.20;5.72;;;;;;;;;;4893287;29;20405;-59
2023/08/04 01:07:25;;;;;;;14.57;5.75;;;;;;;;;;4896475;29;20029;-59
2023/08/04 01:10:17;;;;;;;13.38;6.10;;;;;;;;;;4895693;29;20036;-59
2023/08/04 01:12:55;;;;;;;11.82;5.32;;;;;;;;;;4890768;29;20044;-59
2023/08/04 01:15:23;;;;;;;13.38;5.72;;;;;;;;;;4894977;29;20045;-60
2023/08/04 01:17:49;;;;;;;13.25;5.38;;;;;;;;;;4895290;29;20474;-59
2023/08/04 01:20:14;;;;;;;13.30;5.53;;;;;;;;;;4897166;29;20025;-60
2023/08/04 01:22:40;;;;;;;15.32;5.28;;;;;;;;;;4891353;29;20029;-59
2023/08/04 01:25:06;;;;;;;16.42;6.05;;;;;;;;;;4893481;29;20037;-60
2023/08/04 01:27:37;;;;;;;12.50;5.20;;;;;;;;;;4895725;29;20048;-59
2023/08/04 01:30:06;;;;;;;25.35;6.07;;;;;;;;;;4895891;29;20045;-60
2023/08/04 01:32:32;;;;;;;12.85;5.10;;;;;;;;;;4892704;29;20037;-59
2023/08/04 01:35:00;;;;;;;15.80;5.75;;;;;;;;;;4891726;29;21539;-60
2023/08/04 01:37:26;;;;;;;16.15;5.97;;;;;;;;;;4878465;29;20029;-60
2023/08/04 01:39:51;;;;;;;15.07;5.35;;;;;;;;;;4877749;29;20037;-60
2023/08/04 01:42:16;;;;;;;12.82;5.00;;;;;;;;;;4892173;29;20029;-59
2023/08/04 01:44:42;;;;;;;12.52;5.40;;;;;;;;;;4890368;29;20484;-59
2023/08/04 01:47:08;;;;;;;13.90;5.22;;;;;;;;;;4894095;29;20296;-59
2023/08/04 01:49:34;;;;;;;13.48;5.40;;;;;;;;;;4882404;29;20047;-60
2023/08/04 01:51:59;;;;;;;14.43;5.07;;;;;;;;;;4885288;29;20137;-59
2023/08/04 01:54:27;;;;;;;11.90;5.50;;;;;;;;;;4904860;29;20131;-60
2023/08/04 01:56:53;;;;;;;13.02;5.00;;;;;;;;;;4895007;29;20486;-59
2023/08/04 01:59:18;;;;;;;19.92;5.25;;;;;;;;;;4895132;29;20207;-59
2023/08/04 02:01:43;;;;;;;14.23;5.38;;;;;;;;;;4882357;29;20422;-59
2023/08/04 02:04:09;;;;;;;13.25;4.80;;;;;;;;;;4895491;29;20131;-59
2023/08/04 02:06:34;;;;;;;14.75;5.20;;;;;;;;;;4883922;29;20386;-59
2023/08/04 02:09:00;;;;;;;17.30;4.45;;;;;;;;;;4888749;29;20037;-59
2023/08/04 02:11:25;;;;;;;13.85;5.00;;;;;;;;;;4912488;29;20095;-59
2023/08/04 02:13:50;;;;;;;10.27;4.82;;;;;;;;;;4895888;29;20075;-59
2023/08/04 02:16:16;;;;;;;12.20;4.75;;;;;;;;;;4908083;29;20450;-59
2023/08/04 02:18:41;;;;;;;15.88;5.00;;;;;;;;;;4887794;29;20040;-60
2023/08/04 02:21:07;;;;;;;11.27;4.63;;;;;;;;;;4893436;29;20518;-59
2023/08/04 02:23:35;;;;;;;14.38;4.47;;;;;;;;;;4889949;29;20032;-58
2023/08/04 02:26:01;;;;;;;12.02;4.90;;;;;;;;;;4877263;29;20045;-59
2023/08/04 02:28:26;;;;;;;15.48;4.72;;;;;;;;;;4883240;29;20037;-59
2023/08/04 02:30:51;;;;;;;11.88;4.55;;;;;;;;;;4888059;29;20541;-59
2023/08/04 02:33:17;;;;;;;10.18;4.75;;;;;;;;;;4876479;29;20033;-59
2023/08/04 02:35:42;;;;;;;12.32;4.75;;;;;;;;;;4880050;29;20366;-59
2023/08/04 02:38:07;;;;;;;10.13;4.50;;;;;;;;;;4895630;29;20028;-59
2023/08/04 02:40:37;;;;;;;11.05;4.88;;;;;;;;;;4898283;29;20389;-59
2023/08/04 02:43:02;;;;;;;12.57;4.60;;;;;;;;;;4903662;29;20039;-59
2023/08/04 02:45:28;;;;;;;14.35;4.75;;;;;;;;;;4900436;29;20037;-59
2023/08/04 02:47:53;;;;;;;13.35;4.65;;;;;;;;;;4863179;29;20493;-59
2023/08/04 02:50:19;;;;;;;12.52;5.00;;;;;;;;;;4899119;29;20047;-58
2023/08/04 02:52:44;;;;;;;16.40;5.38;;;;;;;;;;4880263;29;20076;-59
2023/08/04 02:55:11;;;;;;;14.73;4.80;;;;;;;;;;4896556;29;20087;-58
2023/08/04 02:57:39;;;;;;;12.85;5.20;;;;;;;;;;4864919;29;1103899;-59
2023/08/04 03:00:07;;;;;;;13.73;5.50;;;;;;;;;;4884069;29;20466;-58
2023/08/04 03:02:32;;;;;;;11.32;4.78;;;;;;;;;;4880844;29;20033;-59
2023/08/04 03:04:58;;;;;;;17.45;5.35;;;;;;;;;;4897803;29;20064;-60
2023/08/04 03:07:24;;;;;;;14.13;5.00;;;;;;;;;;4891194;29;20061;-59
2023/08/04 03:09:49;;;;;;;12.15;5.03;;;;;;;;;;4903506;29;20115;-59
2023/08/04 03:12:14;;;;;;;15.00;5.05;;;;;;;;;;4911592;29;20032;-59
2023/08/04 03:14:42;;;;;;;10.27;5.15;;;;;;;;;;4901650;29;20037;-59
2023/08/04 03:17:10;;;;;;;11.32;5.00;;;;;;;;;;4882876;29;20518;-59
2023/08/04 03:19:36;;;;;;;14.20;5.30;;;;;;;;;;4904205;29;20047;-59
2023/08/04 03:22:01;;;;;;;12.63;5.20;;;;;;;;;;4886633;29;20092;-60
2023/08/04 03:24:26;;;;;;;14.02;5.65;;;;;;;;;;4890055;29;20059;-59
2023/08/04 03:26:52;;;;;;;14.00;5.30;;;;;;;;;;4865552;29;20385;-59
2023/08/04 03:29:17;;;;;;;11.70;4.88;;;;;;;;;;4912702;29;20036;-59
2023/08/04 03:31:43;;;;;;;14.02;5.68;;;;;;;;;;4899561;29;20044;-58
2023/08/04 03:34:09;;;;;;;13.90;5.60;;;;;;;;;;4892610;29;20028;-59
2023/08/04 03:36:34;;;;;;;11.23;4.93;;;;;;;;;;4880737;29;20453;-59
2023/08/04 03:38:59;;;;;;;20.65;5.85;;;;;;;;;;4899780;29;20046;-59
2023/08/04 03:41:25;;;;;;;11.25;5.72;;;;;;;;;;4911121;29;20090;-59
2023/08/04 03:43:50;;;;;;;15.02;5.63;;;;;;;;;;4880286;29;20097;-59
2023/08/04 03:46:16;;;;;;;12.57;5.13;;;;;;;;;;4885440;29;20843;-59
2023/08/04 03:48:41;;;;;;;12.02;5.28;;;;;;;;;;4885101;29;20060;-59
2023/08/04 03:51:07;;;;;;;12.00;5.50;;;;;;;;;;4884318;29;20025;-58
2023/08/04 03:53:32;;;;;;;14.55;5.53;;;;;;;;;;4880089;29;20037;-59
2023/08/04 03:55:57;;;;;;;15.13;5.30;;;;;;;;;;4879595;29;20041;-58
2023/08/04 03:58:23;;;;;;;15.70;5.50;;;;;;;;;;4894804;29;20500;-58
2023/08/04 04:00:48;;;;;;;15.25;5.20;;;;;;;;;;4877610;29;20032;-60
2023/08/04 04:03:14;;;;;;;17.35;5.72;;;;;;;;;;4896345;29;20300;-60
2023/08/04 04:05:39;;;;;;;12.35;5.70;;;;;;;;;;4895600;29;20040;-59
2023/08/04 04:08:05;;;;;;;15.45;5.65;;;;;;;;;;4886084;29;20471;-59
2023/08/04 04:10:30;;;;;;;12.20;5.65;;;;;;;;;;4890710;29;20397;-59
2023/08/04 04:12:55;;;;;;;14.65;5.35;;;;;;;;;;4898394;29;20127;-59
2023/08/04 04:15:21;;;;;;;18.13;5.50;;;;;;;;;;4887003;29;20033;-59
2023/08/04 04:17:46;;;;;;;13.18;5.13;;;;;;;;;;4884922;29;20558;-59
2023/08/04 04:20:12;;;;;;;13.43;5.68;;;;;;;;;;4911667;29;20035;-59
2023/08/04 04:22:37;;;;;;;18.10;5.53;;;;;;;;;;4897078;29;20044;-59
2023/08/04 04:25:03;;;;;;;17.13;5.72;;;;;;;;;;4894302;29;20586;-59
2023/08/04 04:27:28;;;;;;;12.07;6.00;;;;;;;;;;4893458;29;20036;-59
2023/08/04 04:29:53;;;;;;;13.55;5.43;;;;;;;;;;4882428;29;20145;-59
2023/08/04 04:32:19;;;;;;;15.88;5.32;;;;;;;;;;4894325;29;20576;-59
2023/08/04 04:34:45;;;;;;;11.52;5.47;;;;;;;;;;4897410;29;20033;-59
2023/08/04 04:37:10;;;;;;;14.77;5.45;;;;;;;;;;4895918;29;20489;-60
2023/08/04 04:39:36;;;;;;;12.43;5.32;;;;;;;;;;4898327;29;20028;-59
2023/08/04 04:42:03;;;;;;;15.88;5.20;;;;;;;;;;4896571;29;20064;-59
2023/08/04 04:44:28;;;;;;;20.10;5.43;;;;;;;;;;4895145;29;20369;-58
2023/08/04 04:46:54;;;;;;;12.38;5.78;;;;;;;;;;4896987;29;20473;-59
2023/08/04 04:49:19;;;;;;;12.82;5.70;;;;;;;;;;4896647;29;20612;-59
2023/08/04 04:51:45;;;;;;;13.00;5.38;;;;;;;;;;4880155;29;20227;-58
2023/08/04 04:54:10;;;;;;;12.15;5.50;;;;;;;;;;4890926;29;20088;-59
2023/08/04 04:56:37;;;;;;;12.73;5.80;;;;;;;;;;4881260;29;20053;-59
2023/08/04 04:59:03;;;;;;;18.65;6.10;;;;;;;;;;4895508;29;20037;-58
2023/08/04 05:01:28;;;;;;;20.13;6.03;;;;;;;;;;4881415;29;20394;-58
2023/08/04 05:03:53;;;;;;;16.15;5.75;;;;;;;;;;4897529;29;20037;-58
2023/08/04 05:06:19;;;;;;;15.57;5.65;;;;;;;;;;4897274;29;20489;-58
2023/08/04 05:08:44;;;;;;;16.63;6.40;;;;;;;;;;4896605;29;20043;-59
2023/08/04 05:11:10;;;;;;;12.63;5.45;;;;;;;;;;4895464;29;20426;-60
2023/08/04 05:13:36;;;;;;;13.38;6.03;;;;;;;;;;4904024;29;20040;-63
2023/08/04 05:16:02;;;;;;;15.52;5.90;;;;;;;;;;4898961;29;20033;-63
2023/08/04 05:18:27;;;;;;;15.45;6.15;;;;;;;;;;4899660;29;20040;-63
2023/08/04 05:20:55;;;;;;;13.82;5.72;;;;;;;;;;4893408;29;20591;-66
2023/08/04 05:23:22;;;;;;;17.05;6.28;;;;;;;;;;4894038;29;20216;-65
2023/08/04 05:25:47;;;;;;;16.95;5.88;;;;;;;;;;4895269;29;20131;-64
2023/08/04 05:28:30;;;;;;;12.43;5.57;;;;;;;;;;4895181;29;20036;-64
2023/08/04 05:30:58;;;;;;;16.23;6.32;;;;;;;;;;4897312;29;20040;-61
2023/08/04 05:33:25;;;;;;;14.82;6.05;;;;;;;;;;4887896;29;20047;-63
2023/08/04 05:35:50;;;;;;;16.20;6.28;;;;;;;;;;4893790;29;20044;-62
2023/08/04 05:38:16;;;;;;;16.38;6.70;;;;;;;;;;4879639;29;20028;-63
2023/08/04 05:40:44;;;;;;;14.18;6.57;;;;;;;;;;4896405;29;20401;-62
2023/08/04 05:43:10;;;;;;;17.13;6.65;;;;;;;;;;4896264;29;20096;-61
2023/08/04 05:45:37;;;;;;;19.15;7.18;;;;;;;;;;4897181;29;20036;-61
2023/08/04 05:48:06;;;;;;;18.10;6.75;;;;;;;;;;4878624;29;20044;-62
2023/08/04 05:50:32;;;;;;;13.55;6.35;;;;;;;;;;4895601;29;20045;-62
2023/08/04 05:52:57;;;;;;;13.65;6.40;;;;;;;;;;4896820;29;20056;-62
2023/08/04 05:55:23;;;;;;;15.93;6.65;;;;;;;;;;4893391;29;20056;-61
2023/08/04 05:57:50;;;;;;;21.40;6.63;;;;;;;;;;4896125;29;20049;-62
2023/08/04 06:00:15;;;;;;;15.75;6.85;;;;;;;;;;4896034;29;20119;-62
2023/08/04 06:02:45;;;;;;;18.65;6.90;;;;;;;;;;4896708;29;20115;-62
2023/08/04 06:05:11;;;;;;;14.98;6.30;;;;;;;;;;4895653;29;20054;-60
2023/08/04 06:07:36;;;;;;;21.35;7.00;;;;;;;;;;4894661;29;20072;-61
2023/08/04 06:10:02;;;;;;;18.25;7.18;;;;;;;;;;4879433;29;20082;-62
2023/08/04 06:12:28;;;;;;;21.40;7.22;;;;;;;;;;4896728;29;20036;-62
2023/08/04 06:14:53;;;;;;;18.35;6.95;;;;;;;;;;4895687;29;20040;-62
2023/08/04 06:17:18;;;;;;;14.73;7.28;;;;;;;;;;4894240;29;20060;-61
2023/08/04 06:19:44;;;;;;;19.95;8.38;;;;;;;;;;4896661;29;20453;-61
2023/08/04 06:22:10;;;;;;;22.35;8.57;;;;;;;;;;4895933;29;20488;-62
2023/08/04 06:24:35;;;;;;;15.07;7.70;;;;;;;;;;4896479;29;20123;-62
2023/08/04 06:27:03;;;;;;;17.38;7.53;;;;;;;;;;4895265;29;20111;-61
2023/08/04 06:29:28;;;;;;;15.43;7.25;;;;;;;;;;4891855;29;20187;-60
2023/08/04 06:31:57;;;;;;;17.40;7.13;;;;;;;;;;4877165;29;20123;-60
2023/08/04 06:34:22;;;;;;;15.52;6.65;;;;;;;;;;4893564;29;20063;-61
2023/08/04 06:36:48;;;;;;;15.90;6.10;;;;;;;;;;4896540;29;20342;-63
2023/08/04 06:39:13;;;;;;;12.07;6.80;;;;;;;;;;4877761;29;20077;-62
2023/08/04 06:41:39;;;;;;;12.00;5.93;;;;;;;;;;4896199;29;20474;-61
2023/08/04 06:44:05;;;;;;;12.73;5.22;;;;;;;;;;4877194;29;20496;-63
2023/08/04 06:46:30;;;;;;;13.50;5.03;;;;;;;;;;4863702;29;20032;-64
2023/08/04 06:48:56;;;;;;;14.00;4.93;;;;;;;;;;4894948;29;20485;-64
2023/08/04 06:51:21;;;;;;;12.77;4.50;;;;;;;;;;4895599;29;20032;-61
2023/08/04 06:53:47;;;;;;;13.70;4.38;;;;;;;;;;4895918;29;20035;-62
2023/08/04 06:56:12;;;;;;;12.07;4.45;;;;;;;;;;4896118;29;20063;-63
2023/08/04 06:58:38;;;;;;;12.13;4.15;;;;;;;;;;4893358;29;20068;-62
2023/08/04 07:01:03;;;;;;;10.88;4.00;;;;;;;;;;4895393;29;20408;-63
2023/08/04 07:03:28;;;;;;;9.00;3.83;;;;;;;;;;4896519;29;20035;-60
2023/08/04 07:05:54;;;;;;;7.63;3.72;;;;;;;;;;4895931;29;20084;-63
2023/08/04 07:08:19;;;;;;;8.32;3.80;;;;;;;;;;4894107;29;20466;-63
2023/08/04 07:10:45;;;;;;;7.60;3.63;;;;;;;;;;4896159;29;20032;-62
2023/08/04 07:13:10;;;;;;;6.70;3.35;;;;;;;;;;4895278;29;20071;-62
2023/08/04 07:15:36;;;;;;;8.30;3.25;;;;;;;;;;4878856;29;20043;-62
2023/08/04 07:18:02;;;;;;;9.02;3.15;;;;;;;;;;4892861;29;20024;-62
2023/08/04 07:20:28;;;;;;;8.98;3.60;;;;;;;;;;4881457;29;20466;-63
2023/08/04 07:22:54;;;;;;;9.73;3.95;;;;;;;;;;4896302;29;20119;-62
2023/08/04 07:25:22;;;;;;;8.82;3.70;;;;;;;;;;4898175;29;20226;-63
2023/08/04 07:27:47;;;;;;;10.25;3.97;;;;;;;;;;4899672;29;20107;-63
2023/08/04 07:30:13;;;;;;;9.40;3.78;;;;;;;;;;4897853;29;20123;-62
2023/08/04 07:32:39;;;;;;;10.50;3.95;;;;;;;;;;4899128;29;20474;-62
2023/08/04 07:35:05;;;;;;;11.93;3.88;;;;;;;;;;4895557;29;20024;-63
2023/08/04 07:37:31;;;;;;;14.27;4.20;;;;;;;;;;4899523;29;20466;-61
2023/08/04 07:39:56;;;;;;;8.98;3.70;;;;;;;;;;4898510;29;20067;-61
2023/08/04 07:42:21;;;;;;;9.90;3.88;;;;;;;;;;4897761;29;20036;-63
2023/08/04 07:44:47;;;;;;;7.68;3.65;;;;;;;;;;4899482;29;20036;-62
2023/08/04 07:47:12;;;;;;;9.00;3.95;;;;;;;;;;4910218;29;20493;-62
2023/08/04 07:49:37;;;;;;;7.70;3.70;;;;;;;;;;4908811;29;20179;-63
2023/08/04 07:52:03;;;;;;;9.75;3.63;;;;;;;;;;4889740;29;20067;-62
2023/08/04 07:54:29;;;;;;;10.85;3.80;;;;;;;;;;4892316;29;20544;-60
2023/08/04 07:56:54;;;;;;;9.38;3.60;;;;;;;;;;4898982;29;20049;-63
2023/08/04 07:59:20;;;;;;;7.25;3.33;;;;;;;;;;4898073;29;20024;-63
2023/08/04 08:01:46;;;;;;;9.93;3.55;;;;;;;;;;4898670;29;20060;-63
2023/08/04 08:04:12;;;;;;;7.72;3.35;;;;;;;;;;4895999;29;20125;-62
2023/08/04 08:06:38;;;;;;;13.82;3.80;;;;;;;;;;4902119;29;20047;-61
2023/08/04 08:09:04;;;;;;;9.93;3.40;;;;;;;;;;4903154;29;20063;-62
2023/08/04 08:11:29;;;;;;;10.70;3.53;;;;;;;;;;4902813;29;20037;-62
2023/08/04 08:13:55;;;;;;;8.18;3.75;;;;;;;;;;4900989;29;20469;-63
2023/08/04 08:16:20;;;;;;;10.02;3.78;;;;;;;;;;4904556;29;20036;-63
2023/08/04 08:18:46;;;;;;;7.82;3.80;;;;;;;;;;4902646;29;20505;-63
2023/08/04 08:21:12;;;;;;;12.48;3.70;;;;;;;;;;4901253;29;20043;-63
2023/08/04 08:23:38;;;;;;;10.63;3.53;;;;;;;;;;4901453;29;20115;-63
2023/08/04 08:26:04;;;;;;;8.23;3.40;;;;;;;;;;4899038;29;20076;-62
2023/08/04 08:28:33;;;;;;;7.22;3.58;;;;;;;;;;4901548;29;20036;-63
2023/08/04 08:30:59;;;;;;;10.52;3.50;;;;;;;;;;4897844;29;20492;-62
2023/08/04 08:33:24;;;;;;;9.45;3.40;;;;;;;;;;4879787;29;20044;-64
2023/08/04 08:35:50;;;;;;;8.05;3.00;;;;;;;;;;4897010;29;20048;-62
2023/08/04 08:38:15;;;;;;;6.82;2.97;;;;;;;;;;4898871;29;20032;-62
2023/08/04 08:40:41;;;;;;;6.70;3.35;;;;;;;;;;4882657;29;20080;-61
2023/08/04 08:43:06;;;;;;;6.50;2.97;;;;;;;;;;4897801;29;20131;-62
2023/08/04 08:45:34;;;;;;;8.30;3.15;;;;;;;;;;4898391;29;20043;-62
2023/08/04 08:48:00;;;;;;;6.43;2.85;;;;;;;;;;4898751;29;20408;-62
2023/08/04 08:50:27;;;;;;;7.70;2.83;;;;;;;;;;4896704;29;20049;-63
2023/08/04 08:53:08;;;;;;;5.45;2.40;;;;;;;;;;4896491;29;20028;-62
2023/08/04 08:55:34;;;;;;;6.45;2.50;;;;;;;;;;4897559;29;20029;-62
2023/08/04 08:58:01;;;;;;;5.20;2.40;;;;;;;;;;4885384;29;20104;-61
2023/08/04 09:00:28;;;;;;;9.75;2.50;;;;;;;;;;4878549;29;20036;-63
2023/08/04 09:02:54;;;;;;;8.07;2.75;;;;;;;;;;4897851;29;20040;-62
2023/08/04 09:05:21;;;;;;;6.32;3.10;;;;;;;;;;4895632;29;20663;-63
2023/08/04 09:07:48;;;;;;;4.82;2.20;;;;;;;;;;4895875;29;20415;-62
2023/08/04 09:10:14;;;;;;;4.93;1.95;;;;;;;;;;4896860;29;20423;-64
2023/08/04 09:12:44;;;;;;;5.13;2.25;;;;;;;;;;4896828;29;20036;-64
2023/08/04 09:15:10;;;;;;;8.18;2.50;;;;;;;;;;4894873;29;20044;-64
2023/08/04 09:17:37;;;;;;;8.13;2.55;;;;;;;;;;4898197;29;20043;-63
2023/08/04 09:20:05;;;;;;;8.43;2.58;;;;;;;;;;4896273;29;20032;-64
2023/08/04 09:22:32;;;;;;;6.00;2.45;;;;;;;;;;4897665;29;20120;-62
2023/08/04 09:25:03;;;;;;;5.68;2.40;;;;;;;;;;4896409;29;20028;-62
2023/08/04 09:27:37;;;;;;;4.95;2.33;;;;;;;;;;4897663;29;20032;-62
2023/08/04 09:30:05;;;;;;;5.13;2.72;;;;;;;;;;4896718;29;20052;-63
2023/08/04 09:32:37;;;;;;;4.93;2.50;;;;;;;;;;4894979;29;20057;-63
2023/08/04 09:35:05;;;;;;;5.95;2.50;;;;;;;;;;4896256;29;20043;-64
2023/08/04 09:37:32;;;;;;;5.13;2.30;;;;;;;;;;4897379;29;20042;-61
2023/08/04 09:39:59;;;;;;;4.93;2.22;;;;;;;;;;4897010;29;20033;-62
2023/08/04 09:42:24;;;;;;;5.45;2.38;;;;;;;;;;4895612;29;20042;-63
2023/08/04 09:44:52;;;;;;;5.32;2.40;;;;;;;;;;4880514;29;20036;-63
2023/08/04 09:47:20;;;;;;;6.57;2.55;;;;;;;;;;4894779;29;20442;-62
2023/08/04 09:49:45;;;;;;;4.68;2.25;;;;;;;;;;4895657;29;20043;-63
2023/08/04 09:52:10;;;;;;;4.95;2.75;;;;;;;;;;4896245;29;20062;-63
2023/08/04 09:54:36;;;;;;;4.55;2.20;;;;;;;;;;4896753;29;20037;-64
2023/08/04 09:57:02;;;;;;;7.90;2.33;;;;;;;;;;4896549;29;20049;-63
2023/08/04 09:59:28;;;;;;;6.00;2.30;;;;;;;;;;4894949;29;20043;-63
2023/08/04 10:01:56;;;;;;;4.75;1.73;;;;;;;;;;4895091;29;20029;-63
2023/08/04 10:04:22;;;;;;;6.97;1.80;;;;;;;;;;4896238;29;20112;-63
2023/08/04 10:06:48;;;;;;;4.70;2.05;;;;;;;;;;4879982;29;20054;-62
2023/08/04 10:09:14;;;;;;;3.53;1.70;;;;;;;;;;4877276;29;20092;-62
2023/08/04 10:11:39;;;;;;;3.33;1.45;;;;;;;;;;4896115;29;20025;-61
2023/08/04 10:14:05;;;;;;;3.30;1.65;;;;;;;;;;4887601;29;20041;-63
2023/08/04 10:16:34;;;;;;;2.22;1.42;;;;;;;;;;4889561;29;20112;-63
2023/08/04 10:19:02;;;;;;;4.35;1.45;;;;;;;;;;4894875;29;20036;-63
2023/08/04 10:21:34;;;;;;;2.38;1.55;;;;;;;;;;4896030;29;20052;-62
2023/08/04 10:23:59;;;;;;;1.63;1.30;;;;;;;;;;4894345;29;20111;-61
2023/08/04 10:26:25;;;;;;;2.65;1.60;;;;;;;;;;4891197;29;20140;-62
2023/08/04 10:29:01;;;;;;;4.40;1.60;;;;;;;;;;4894744;29;20107;-61
2023/08/04 10:31:51;;;;;;;4.88;1.60;;;;;;;;;;4890853;29;20041;-61
2023/08/04 10:34:35;;;;;;;5.13;1.50;;;;;;;;;;4895689;29;20046;-62
2023/08/04 10:37:13;;;;;;;3.55;1.58;;;;;;;;;;4879990;29;20107;-62
2023/08/04 10:39:56;;;;;;;2.28;1.35;;;;;;;;;;4896624;29;20032;-61
2023/08/04 10:42:29;;;;;;;3.55;1.38;;;;;;;;;;4878322;29;20040;-61
2023/08/04 10:44:54;;;;;;;2.25;1.30;;;;;;;;;;4896390;29;20387;-61
2023/08/04 10:47:41;;;;;;;2.15;1.50;;;;;;;;;;4894669;29;20028;-61
2023/08/04 10:50:07;;;;;;;4.10;1.70;;;;;;;;;;4876936;29;20045;-60
2023/08/04 10:52:34;;;;;;;2.58;1.63;;;;;;;;;;4889102;29;20497;-62
2023/08/04 10:55:00;;;;;;;1.80;1.40;;;;;;;;;;4895474;29;20108;-62
2023/08/04 10:57:29;;;;;;;2.22;1.45;;;;;;;;;;4895853;29;20118;-63
2023/08/04 10:59:55;;;;;;;1.73;1.40;;;;;;;;;;4897976;29;20119;-63
2023/08/04 11:02:22;;;;;;;2.28;1.35;;;;;;;;;;4898344;29;20128;-63
2023/08/04 11:04:48;;;;;;;2.92;1.40;;;;;;;;;;4899444;29;20047;-63
2023/08/04 11:07:17;;;;;;;1.67;1.30;;;;;;;;;;4898437;29;20032;-63
2023/08/04 11:09:45;;;;;;;2.20;1.40;;;;;;;;;;4897598;29;20037;-63
2023/08/04 11:12:12;;;;;;;2.65;1.45;;;;;;;;;;4897975;29;20037;-63
2023/08/04 11:14:38;;;;;;;9.98;1.70;;;;;;;;;;4899623;29;20165;-62
2023/08/04 11:17:11;;;;;;;2.35;1.45;;;;;;;;;;4898727;29;20040;-62
2023/08/04 11:19:37;;;;;;;2.55;1.40;;;;;;;;;;4898035;29;20114;-63
2023/08/04 11:22:11;;;;;;;3.50;1.58;;;;;;;;;;4897881;29;20044;-64
2023/08/04 11:24:37;;;;;;;3.75;1.50;;;;;;;;;;4898152;29;20102;-63
2023/08/04 11:27:04;;;;;;;3.78;1.60;;;;;;;;;;4898812;29;20036;-63
2023/08/04 11:29:29;;;;;;;2.63;1.65;;;;;;;;;;4898620;29;20051;-63
2023/08/04 11:31:54;;;;;;;3.03;1.90;;;;;;;;;;4899606;29;20389;-63
2023/08/04 11:34:20;;;;;;;5.10;2.00;;;;;;;;;;4898303;29;20044;-63
2023/08/04 11:36:49;;;;;;;2.30;1.70;;;;;;;;;;4899254;29;20028;-63
2023/08/04 11:39:14;;;;;;;2.45;1.60;;;;;;;;;;4897574;29;20036;-61
2023/08/04 11:41:42;;;;;;;3.63;1.83;;;;;;;;;;4898471;29;20392;-64
2023/08/04 11:44:08;;;;;;;2.45;1.40;;;;;;;;;;4898978;29;20474;-63
2023/08/04 11:46:34;;;;;;;3.65;1.67;;;;;;;;;;4897877;29;20044;-63
2023/08/04 11:49:04;;;;;;;3.20;1.70;;;;;;;;;;4899331;29;20032;-62
2023/08/04 11:51:29;;;;;;;3.47;1.63;;;;;;;;;;4899167;29;20064;-63
2023/08/04 11:53:55;;;;;;;2.35;1.70;;;;;;;;;;4898887;29;20496;-64
2023/08/04 11:56:20;;;;;;;3.90;1.52;;;;;;;;;;4897317;29;20105;-63
2023/08/04 11:58:50;;;;;;;3.72;1.40;;;;;;;;;;4899002;29;20389;-61
2023/08/04 12:01:27;;;;;;;3.43;1.47;;;;;;;;;;4895410;29;20048;-62
2023/08/04 12:03:53;;;;;;;4.75;1.80;;;;;;;;;;4895737;29;20438;-60
2023/08/04 12:06:23;;;;;;;3.08;1.67;;;;;;;;;;4896159;29;20035;-62
2023/08/04 12:08:49;;;;;;;2.75;1.50;;;;;;;;;;4898767;29;20032;-62
2023/08/04 12:11:16;;;;;;;3.13;1.70;;;;;;;;;;4898033;29;20466;-63
2023/08/04 12:13:42;;;;;;;3.97;1.90;;;;;;;;;;4898474;29;20486;-62
2023/08/04 12:16:08;;;;;;;3.13;1.75;;;;;;;;;;4896935;29;20037;-62
2023/08/04 12:18:33;;;;;;;4.28;1.75;;;;;;;;;;4898670;29;20062;-62
2023/08/04 12:20:59;;;;;;;5.25;2.00;;;;;;;;;;4898587;29;20032;-64
2023/08/04 12:23:25;;;;;;;2.88;1.73;;;;;;;;;;4881370;29;20033;-63
2023/08/04 12:25:51;;;;;;;3.55;1.83;;;;;;;;;;4896483;29;20047;-63
2023/08/04 12:28:16;;;;;;;3.70;2.20;;;;;;;;;;4897596;29;20032;-64
2023/08/04 12:30:42;;;;;;;4.22;1.70;;;;;;;;;;4898526;29;20081;-62
2023/08/04 12:33:07;;;;;;;2.10;1.65;;;;;;;;;;4897417;29;20036;-62
2023/08/04 12:35:32;;;;;;;2.15;1.30;;;;;;;;;;4898510;29;20514;-64
2023/08/04 12:38:03;;;;;;;3.38;1.80;;;;;;;;;;4898409;29;20029;-63
2023/08/04 12:40:33;;;;;;;2.63;1.80;;;;;;;;;;4897943;29;20367;-62
2023/08/04 12:42:58;;;;;;;4.68;2.03;;;;;;;;;;4880588;29;20067;-61
2023/08/04 12:45:24;;;;;;;2.53;1.70;;;;;;;;;;4897679;29;20067;-62
2023/08/04 12:47:49;;;;;;;3.53;1.65;;;;;;;;;;4898093;29;20056;-62
2023/08/04 12:50:14;;;;;;;3.20;1.80;;;;;;;;;;4895448;29;20052;-61
2023/08/04 12:52:40;;;;;;;2.70;1.40;;;;;;;;;;4897454;29;20123;-65
2023/08/04 12:55:06;;;;;;;2.95;1.20;;;;;;;;;;4895905;29;20074;-61
2023/08/04 12:57:31;;;;;;;2.03;1.30;;;;;;;;;;4897678;29;20486;-61
2023/08/04 12:59:56;;;;;;;1.73;1.30;;;;;;;;;;4896954;29;20047;-61
2023/08/04 13:02:22;;;;;;;2.00;1.55;;;;;;;;;;4893285;29;20597;-61
2023/08/04 13:04:47;;;;;;;5.00;1.52;;;;;;;;;;4895971;29;20036;-62
2023/08/04 13:07:13;;;;;;;4.65;2.00;;;;;;;;;;4905501;29;20116;-64
2023/08/04 13:09:38;;;;;;;2.88;1.85;;;;;;;;;;4898713;29;20040;-62
2023/08/04 13:12:04;;;;;;;3.15;1.88;;;;;;;;;;4895627;29;20033;-61
2023/08/04 13:14:29;;;;;;;3.83;2.30;;;;;;;;;;4898836;29;20103;-62
2023/08/04 13:16:55;;;;;;;4.97;1.88;;;;;;;;;;4897322;29;20040;-62
2023/08/04 13:19:20;;;;;;;3.40;2.03;;;;;;;;;;4900092;29;20025;-62
2023/08/04 13:21:45;;;;;;;3.45;1.98;;;;;;;;;;4896162;29;20146;-62
2023/08/04 13:24:11;;;;;;;3.25;1.83;;;;;;;;;;4901381;29;20038;-64
2023/08/04 13:26:38;;;;;;;3.97;1.90;;;;;;;;;;4880499;29;20084;-63
2023/08/04 13:29:04;;;;;;;3.08;1.83;;;;;;;;;;4895668;29;20048;-61
2023/08/04 13:31:29;;;;;;;2.67;1.63;;;;;;;;;;4897431;29;20032;-62
2023/08/04 13:33:55;;;;;;;2.40;1.67;;;;;;;;;;4894014;29;20492;-62
2023/08/04 13:36:20;;;;;;;3.35;1.70;;;;;;;;;;4907431;29;20635;-61
2023/08/04 13:38:46;;;;;;;3.35;1.67;;;;;;;;;;4895010;29;20461;-61
2023/08/04 13:41:11;;;;;;;3.15;1.60;;;;;;;;;;4877999;29;20431;-62
2023/08/04 13:43:37;;;;;;;2.50;1.50;;;;;;;;;;4878671;29;20064;-61
2023/08/04 13:46:02;;;;;;;2.42;1.40;;;;;;;;;;4891673;29;20037;-61
2023/08/04 13:48:28;;;;;;;2.28;1.30;;;;;;;;;;4895446;29;20040;-61
2023/08/04 13:50:53;;;;;;;2.50;1.40;;;;;;;;;;4897161;29;20092;-60
2023/08/04 13:53:19;;;;;;;2.05;1.40;;;;;;;;;;4879317;29;20033;-61
2023/08/04 13:55:44;;;;;;;2.53;1.40;;;;;;;;;;4896718;29;20040;-61
2023/08/04 13:58:10;;;;;;;1.55;1.23;;;;;;;;;;4896167;29;20104;-61
2023/08/04 14:00:35;;;;;;;2.17;1.30;;;;;;;;;;4879172;29;20040;-61
2023/08/04 14:03:01;;;;;;;1.10;1.00;;;;;;;;;;4896764;29;20028;-60
2023/08/04 14:05:26;;;;;;;2.45;1.02;;;;;;;;;;4895645;29;20033;-59
2023/08/04 14:07:52;;;;;;;1.83;1.20;;;;;;;;;;4879163;29;20379;-59
2023/08/04 14:10:17;;;;;;;3.20;1.10;;;;;;;;;;4878036;29;20044;-60
2023/08/04 14:12:42;;;;;;;2.35;1.05;;;;;;;;;;4861922;29;20036;-59
2023/08/04 14:15:08;;;;;;;1.17;1.08;;;;;;;;;;4895436;29;20041;-60
2023/08/04 14:17:34;;;;;;;1.25;1.02;;;;;;;;;;4892224;29;20047;-60
2023/08/04 14:20:04;;;;;;;1.35;1.10;;;;;;;;;;4896102;29;20033;-60
2023/08/04 14:22:31;;;;;;;2.53;1.10;;;;;;;;;;4896697;29;20043;-60
2023/08/04 14:24:57;;;;;;;1.80;0.90;;;;;;;;;;4895130;29;20040;-60
2023/08/04 14:27:22;;;;;;;1.20;1.02;;;;;;;;;;4894380;29;20060;-60
2023/08/04 14:29:48;;;;;;;1.35;1.15;;;;;;;;;;4896702;29;20079;-59
2023/08/04 14:32:13;;;;;;;1.48;1.20;;;;;;;;;;4897600;29;20473;-60